Aeroporto :
LOGIN :

Iscrizione | Disclaimer

   EN    FR    IT 

 










Sommario :    VFR   VFR Marginale   IFR   IFR Intensivo   IFR Molto Intensivo
Visibilità : 
Base nubi : 
>= 8 km
>= 3000ft
5 / 8 km
1000 / 3000 ft
1500m / 5 km
500 / 1000 ft
800 / 1500m
200 / 500 ft
< 800m
< 200 ft
Simboli :   Temporali  Nebbia  Neve Forte  Precipitazioni Forti  Vento > 20 kt
SIGMETs :   Varie  Temporali  Ghiacco  Turbolenza  Onda orograficha  Ceneri Vulcaniche






- Altitudine del aeroporto : 240 ft
- Codice IATA : VLC


LEVC - Valencia Manises

ULTIMO METAR :
  • 271300Z 07015KT 040V110 CAVOK 28/12 Q1025 NOSIG

METARs OBSOLETI :
  • 271230Z 08015KT 040V110 CAVOK 27/14 Q1025 NOSIG
  • 271200Z 08014KT 030V110 CAVOK 27/16 Q1025 NOSIG
  • 271130Z 07014KT 030V110 CAVOK 27/16 Q1026 NOSIG
  • 271100Z 08014KT 040V120 CAVOK 27/15 Q1026 NOSIG

TAF TAF LEVC
Valido dal 27 a 12 ore il 28 a 12 ore UTC


271100Z 2712/2812 08012KT CAVOK TX27/2712Z TN15/2806Z
PROB40
TEMPO 2712/2716 09015G25KT
BECMG 2719/2721 VRB05KT
PROB30
TEMPO 2722/2806 3000 BR



MetMap, La meteo Aeronautica in un colpo d'occhio ! - Copyright ORBIFLY Dicembre 2007 - Disclaimer

ORBIFLY MET'MAP TEAM :

Programmazione e sviluppo : Alexandra Zaïnal
Concezione : Baudouin d'Aumeries
Aiuto per la programmazione : Marc-Olivier Méhu
Supporto tecnico e logistico : Manuel Goepfert
Aiuto per la traduzione : Arnaldo La Scala

Contatto : metmap@orbifly.com




FONTI E CREDITI :

   NOAA